Time;durP1;ratioP1;P1;durP2;ratioP2;P2;SDS_P1;SDS_P2;PMS_P1;PMS_P2;Temp;Humidity;BMP_temperature;BMP_pressure;BME280_temperature;BME280_humidity;BME280_pressure;Samples;Min_cycle;Max_cycle;Signal;HPM_P1;HPM_P2
2023/02/12 00:02:25;;;;;;;;;;;6.30;99.90;;;;;;5076520;28;19920;-56
2023/02/12 00:04:53;;;;;;;;;;;6.40;99.90;;;;;;5074656;28;19938;-56
2023/02/12 00:07:20;;;;;;;;;;;6.30;99.90;;;;;;5074919;28;19920;-56
2023/02/12 00:09:47;;;;;;;;;;;6.30;99.90;;;;;;5074505;28;20011;-55
2023/02/12 00:12:14;;;;;;;;;;;6.30;99.90;;;;;;5075674;28;20401;-55
2023/02/12 00:14:41;;;;;;;;;;;6.30;99.90;;;;;;5077107;28;19920;-57
2023/02/12 00:17:08;;;;;;;;;;;6.30;99.90;;;;;;5076533;28;20015;-57
2023/02/12 00:19:35;;;;;;;;;;;6.30;99.90;;;;;;5075917;28;20387;-57
2023/02/12 00:22:03;;;;;;;;;;;6.30;99.90;;;;;;5075363;28;20302;-57
2023/02/12 00:24:30;;;;;;;;;;;6.30;99.90;;;;;;5075026;28;20053;-57
2023/02/12 00:26:57;;;;;;;;;;;6.30;99.90;;;;;;5072962;28;19946;-56
2023/02/12 00:29:24;;;;;;;;;;;6.30;99.90;;;;;;5073962;28;19938;-54
2023/02/12 00:31:51;;;;;;;;;;;6.30;99.90;;;;;;5074686;28;20023;-56
2023/02/12 00:34:18;;;;;;;;;;;6.20;99.90;;;;;;5074751;28;20308;-55
2023/02/12 00:36:45;;;;;;;;;;;6.20;99.90;;;;;;5074920;28;19959;-54
2023/02/12 00:39:13;;;;;;;;;;;6.20;99.90;;;;;;5076126;28;19998;-56
2023/02/12 00:41:40;;;;;;;;;;;6.30;99.90;;;;;;5076058;28;20007;-57
2023/02/12 00:44:07;;;;;;;;;;;6.30;99.90;;;;;;5074737;28;19924;-57
2023/02/12 00:46:34;;;;;;;;;;;6.30;99.90;;;;;;5075679;28;19920;-56
2023/02/12 00:49:01;;;;;;;;;;;6.40;99.90;;;;;;5075782;28;20006;-55
2023/02/12 00:51:27;;;;;;;;;;;6.40;99.90;;;;;;5076953;28;19921;-57
2023/02/12 00:53:54;;;;;;;;;;;6.30;99.90;;;;;;5078767;28;19920;-57
2023/02/12 00:56:23;;;;;;;;;;;6.30;99.90;;;;;;5082659;28;20294;-57
2023/02/12 00:58:50;;;;;;;;;;;6.30;99.90;;;;;;5082853;28;19926;-56
2023/02/12 01:01:16;;;;;;;;;;;6.30;99.90;;;;;;5082954;28;20018;-56
2023/02/12 01:03:43;;;;;;;;;;;6.30;99.90;;;;;;5083063;28;20007;-58
2023/02/12 01:06:10;;;;;;;;;;;6.40;99.90;;;;;;5081795;28;20223;-55
2023/02/12 01:08:37;;;;;;;;;;;6.40;99.90;;;;;;5082391;28;20015;-57
2023/02/12 01:11:05;;;;;;;;;;;6.30;99.90;;;;;;5081538;28;19924;-56
2023/02/12 01:13:33;;;;;;;;;;;6.30;99.90;;;;;;5081390;28;19921;-57
2023/02/12 01:16:07;;;;;;;;;;;6.30;99.90;;;;;;5081868;28;19920;-55
2023/02/12 01:18:34;;;;;;;;;;;6.30;99.90;;;;;;5082293;28;19928;-57
2023/02/12 01:21:01;;;;;;;;;;;6.40;99.90;;;;;;5082163;28;19920;-56
2023/02/12 01:23:28;;;;;;;;;;;6.40;99.90;;;;;;5081726;28;20228;-55
2023/02/12 01:25:55;;;;;;;;;;;6.50;99.90;;;;;;5081677;28;19950;-57
2023/02/12 01:28:22;;;;;;;;;;;6.40;99.90;;;;;;5081152;28;20243;-55
2023/02/12 01:30:50;;;;;;;;;;;6.40;99.90;;;;;;5081303;28;20014;-54
2023/02/12 01:33:17;;;;;;;;;;;6.30;99.90;;;;;;5082099;28;19926;-57
2023/02/12 01:35:44;;;;;;;;;;;6.30;99.90;;;;;;5082142;28;20019;-64
2023/02/12 01:38:11;;;;;;;;;;;6.40;99.90;;;;;;5082581;28;19921;-57
2023/02/12 01:40:37;;;;;;;;;;;6.40;99.90;;;;;;5082557;28;19920;-58
2023/02/12 01:43:06;;;;;;;;;;;6.40;99.90;;;;;;5082225;28;20019;-55
2023/02/12 01:45:47;;;;;;;;;;;6.40;99.90;;;;;;5082652;28;19920;-55
2023/02/12 01:48:16;;;;;;;;;;;6.40;99.90;;;;;;5082442;28;20227;-55
2023/02/12 01:50:43;;;;;;;;;;;6.40;99.90;;;;;;5082520;28;20011;-57
2023/02/12 01:53:12;;;;;;;;;;;6.40;99.90;;;;;;5082388;28;20368;-55
2023/02/12 01:55:39;;;;;;;;;;;6.40;99.90;;;;;;5080506;28;20244;-56
2023/02/12 01:58:08;;;;;;;;;;;6.50;99.90;;;;;;5080112;28;20455;-56
2023/02/12 02:00:35;;;;;;;;;;;6.40;99.90;;;;;;5082484;28;20387;-57
2023/02/12 02:03:02;;;;;;;;;;;6.40;99.90;;;;;;5082099;28;19927;-56
2023/02/12 02:05:38;;;;;;;;;;;6.40;99.90;;;;;;5078958;28;20056;-57
2023/02/12 02:08:05;;;;;;;;;;;6.30;99.90;;;;;;5078266;28;20235;-59
2023/02/12 02:10:32;;;;;;;;;;;6.20;99.90;;;;;;5078053;28;20110;-56
2023/02/12 02:15:45;;;;;;;;;;;6.20;99.90;;;;;;5077714;28;19922;-56
2023/02/12 02:18:16;;;;;;;;;;;6.20;99.90;;;;;;5077074;28;20213;-55
2023/02/12 02:21:05;;;;;;;;;;;6.30;99.90;;;;;;5075026;28;20015;-55
2023/02/12 02:23:40;;;;;;;;;;;6.30;99.90;;;;;;5074764;28;20027;-56
2023/02/12 02:26:17;;;;;;;;;;;6.40;99.90;;;;;;5075027;28;20014;-55
2023/02/12 02:28:59;;;;;;;;;;;6.30;99.90;;;;;;5075318;28;19921;-54
2023/02/12 02:31:31;;;;;;;;;;;6.40;99.90;;;;;;5076033;28;19970;-54
2023/02/12 02:33:59;;;;;;;;;;;6.30;99.90;;;;;;5076026;28;19931;-56
2023/02/12 02:36:28;;;;;;;;;;;6.30;99.90;;;;;;5077914;28;20235;-56
2023/02/12 02:38:59;;;;;;;;;;;6.30;99.90;;;;;;5078726;28;19924;-54
2023/02/12 02:41:28;;;;;;;;;;;6.30;99.90;;;;;;5078414;28;19978;-55
2023/02/12 02:43:55;;;;;;;;;;;6.20;99.90;;;;;;5078409;28;19947;-56
2023/02/12 02:46:26;;;;;;;;;;;6.20;99.90;;;;;;5078269;28;20386;-56
2023/02/12 02:48:58;;;;;;;;;;;6.20;99.90;;;;;;5077775;28;19921;-56
2023/02/12 02:51:27;;;;;;;;;;;6.20;99.90;;;;;;5078572;28;19927;-52
2023/02/12 02:53:57;;;;;;;;;;;6.20;99.90;;;;;;5077996;28;20015;-54
2023/02/12 02:56:25;;;;;;;;;;;6.30;99.90;;;;;;5077668;28;20006;-54
2023/02/12 02:58:54;;;;;;;;;;;6.30;99.90;;;;;;5078534;28;20264;-56
2023/02/12 03:01:22;;;;;;;;;;;6.30;99.90;;;;;;5077754;28;20348;-56
2023/02/12 03:03:51;;;;;;;;;;;6.30;99.90;;;;;;5078423;28;19926;-55
2023/02/12 03:06:22;;;;;;;;;;;6.40;99.90;;;;;;5077287;28;20277;-56
2023/02/12 03:08:53;;;;;;;;;;;6.40;99.90;;;;;;5078227;28;19920;-56
2023/02/12 03:11:23;;;;;;;;;;;6.40;99.90;;;;;;5077444;28;20012;-55
2023/02/12 03:13:53;;;;;;;;;;;6.50;99.90;;;;;;5077529;28;20011;-54
2023/02/12 03:16:23;;;;;;;;;;;6.50;99.90;;;;;;5077803;28;19920;-56
2023/02/12 03:18:53;;;;;;;;;;;6.60;99.90;;;;;;5077912;28;20546;-57
2023/02/12 03:21:24;;;;;;;;;;;6.60;99.90;;;;;;5077619;28;19921;-57
2023/02/12 03:23:55;;;;;;;;;;;6.60;99.90;;;;;;5077743;28;20010;-58
2023/02/12 03:26:25;;;;;;;;;;;6.60;99.90;;;;;;5077652;28;19920;-57
2023/02/12 03:28:52;;;;;;;;;;;6.70;99.90;;;;;;5077839;28;20379;-57
2023/02/12 03:31:23;;;;;;;;;;;6.70;99.90;;;;;;5077666;28;19924;-57
2023/02/12 03:33:55;;;;;;;;;;;6.70;99.90;;;;;;5077529;28;19920;-56
2023/02/12 03:36:28;;;;;;;;;;;6.70;99.90;;;;;;5077724;28;20003;-55
2023/02/12 03:38:55;;;;;;;;;;;6.60;99.90;;;;;;5076352;28;20221;-56
2023/02/12 03:41:25;;;;;;;;;;;6.60;99.90;;;;;;5076681;28;19964;-55
2023/02/12 03:43:54;;;;;;;;;;;6.60;99.90;;;;;;5077187;28;20007;-57
2023/02/12 03:46:23;;;;;;;;;;;6.50;99.90;;;;;;5076678;28;19931;-55
2023/02/12 03:48:56;;;;;;;;;;;6.50;99.90;;;;;;5077465;28;19920;-56
2023/02/12 03:51:27;;;;;;;;;;;6.60;99.90;;;;;;5077310;28;19921;-56
2023/02/12 03:53:55;;;;;;;;;;;6.60;99.90;;;;;;5077221;28;19927;-56
2023/02/12 03:56:24;;;;;;;;;;;6.50;99.90;;;;;;5059731;28;20376;-56
2023/02/12 03:58:51;;;;;;;;;;;6.50;99.90;;;;;;5076948;28;20027;-55
2023/02/12 04:01:18;;;;;;;;;;;6.40;99.90;;;;;;5075767;28;19999;-57
2023/02/12 04:03:44;;;;;;;;;;;6.40;99.90;;;;;;5077335;28;19921;-56
2023/02/12 04:06:19;;;;;;;;;;;6.40;99.90;;;;;;5076529;28;19920;-56
2023/02/12 04:08:48;;;;;;;;;;;6.30;99.90;;;;;;5077049;28;19920;-56
2023/02/12 04:11:20;;;;;;;;;;;6.40;99.90;;;;;;5059436;28;19925;-55
2023/02/12 04:13:52;;;;;;;;;;;6.30;99.90;;;;;;5057503;28;20018;-52
2023/02/12 04:16:23;;;;;;;;;;;6.40;99.90;;;;;;5056703;28;20244;-55
2023/02/12 04:18:50;;;;;;;;;;;6.40;99.90;;;;;;5056782;28;19921;-55
2023/02/12 04:21:20;;;;;;;;;;;6.30;99.90;;;;;;5056853;28;19920;-57
2023/02/12 04:23:53;;;;;;;;;;;6.30;99.90;;;;;;5056536;28;19920;-56
2023/02/12 04:26:27;;;;;;;;;;;6.30;99.90;;;;;;5055844;28;20023;-56
2023/02/12 04:28:57;;;;;;;;;;;6.30;99.90;;;;;;5056502;28;19963;-57
2023/02/12 04:31:28;;;;;;;;;;;6.30;99.90;;;;;;5056848;28;19999;-56
2023/02/12 04:34:00;;;;;;;;;;;6.30;99.90;;;;;;5056943;28;19931;-57
2023/02/12 04:36:30;;;;;;;;;;;6.40;99.90;;;;;;5055857;28;19921;-57
2023/02/12 04:39:00;;;;;;;;;;;6.30;99.90;;;;;;5056732;28;20035;-57
2023/02/12 04:41:27;;;;;;;;;;;6.40;99.90;;;;;;5056479;28;20017;-54
2023/02/12 04:43:54;;;;;;;;;;;6.30;99.90;;;;;;5056843;28;20005;-54
2023/02/12 04:46:20;;;;;;;;;;;6.40;99.90;;;;;;5056885;28;20038;-56
2023/02/12 04:48:51;;;;;;;;;;;6.40;99.90;;;;;;5056740;28;19920;-55
2023/02/12 04:51:19;;;;;;;;;;;6.40;99.90;;;;;;5056349;28;20011;-54
2023/02/12 04:53:46;;;;;;;;;;;6.40;99.90;;;;;;5056364;28;19974;-56
2023/02/12 04:56:15;;;;;;;;;;;6.40;99.90;;;;;;5056969;28;19921;-55
2023/02/12 04:58:42;;;;;;;;;;;6.40;99.90;;;;;;5056347;28;19931;-53
2023/02/12 05:01:10;;;;;;;;;;;6.30;99.90;;;;;;5056393;28;19920;-57
2023/02/12 05:03:36;;;;;;;;;;;6.10;99.90;;;;;;5056096;28;19920;-55
2023/02/12 05:06:03;;;;;;;;;;;6.10;99.90;;;;;;5055413;28;20364;-52
2023/02/12 05:08:30;;;;;;;;;;;6.10;99.90;;;;;;5056315;28;19920;-54
2023/02/12 05:10:57;;;;;;;;;;;6.10;99.90;;;;;;5056133;28;19931;-58
2023/02/12 05:13:26;;;;;;;;;;;6.00;99.90;;;;;;5055689;28;20391;-55
2023/02/12 05:15:53;;;;;;;;;;;6.00;99.90;;;;;;5055649;28;20335;-56
2023/02/12 05:18:20;;;;;;;;;;;6.00;99.90;;;;;;5056082;28;19921;-55
2023/02/12 05:20:54;;;;;;;;;;;5.90;99.90;;;;;;5055788;28;19927;-56
2023/02/12 05:23:21;;;;;;;;;;;5.90;99.90;;;;;;5056461;28;20019;-54
2023/02/12 05:25:48;;;;;;;;;;;5.80;99.90;;;;;;5056668;28;20060;-51
2023/02/12 05:28:15;;;;;;;;;;;5.80;99.90;;;;;;5056107;28;19975;-56
2023/02/12 05:30:43;;;;;;;;;;;5.80;99.90;;;;;;5056332;28;19927;-56
2023/02/12 05:33:10;;;;;;;;;;;5.90;99.90;;;;;;5056114;28;20023;-55
2023/02/12 05:35:37;;;;;;;;;;;6.00;99.90;;;;;;5055603;28;20022;-56
2023/02/12 05:38:04;;;;;;;;;;;6.10;99.90;;;;;;5056115;28;20291;-60
2023/02/12 05:40:31;;;;;;;;;;;6.10;99.90;;;;;;5056164;28;19921;-56
2023/02/12 05:42:58;;;;;;;;;;;6.00;99.90;;;;;;5059820;28;19927;-55
2023/02/12 05:45:26;;;;;;;;;;;6.00;99.90;;;;;;5059576;28;20331;-51
2023/02/12 05:47:55;;;;;;;;;;;5.90;99.90;;;;;;5060029;28;20256;-56
2023/02/12 05:50:22;;;;;;;;;;;5.90;99.90;;;;;;5058993;28;19921;-56
2023/02/12 05:52:49;;;;;;;;;;;5.90;99.90;;;;;;5059776;28;19920;-56
2023/02/12 05:55:16;;;;;;;;;;;5.90;99.90;;;;;;5059191;28;20351;-56
2023/02/12 05:57:44;;;;;;;;;;;5.80;99.90;;;;;;5059247;28;20011;-56
2023/02/12 06:00:12;;;;;;;;;;;5.80;99.90;;;;;;5059285;28;19928;-56
2023/02/12 06:02:38;;;;;;;;;;;5.80;99.90;;;;;;5058682;28;20011;-55
2023/02/12 06:05:07;;;;;;;;;;;5.90;99.90;;;;;;5059570;28;20206;-53
2023/02/12 06:07:34;;;;;;;;;;;5.90;99.90;;;;;;5059736;28;19927;-54
2023/02/12 06:10:01;;;;;;;;;;;5.90;99.90;;;;;;5058440;28;20573;-56
2023/02/12 06:12:28;;;;;;;;;;;5.90;99.90;;;;;;5074775;28;19950;-55
2023/02/12 06:14:55;;;;;;;;;;;5.90;99.90;;;;;;5079340;28;20023;-53
2023/02/12 06:17:22;;;;;;;;;;;5.90;99.90;;;;;;5079059;28;20461;-55
2023/02/12 06:19:49;;;;;;;;;;;5.90;99.90;;;;;;5078312;28;19920;-55
2023/02/12 06:22:17;;;;;;;;;;;5.90;99.90;;;;;;5078627;28;19952;-55
2023/02/12 06:24:44;;;;;;;;;;;5.90;99.90;;;;;;5077593;28;20407;-56
2023/02/12 06:27:11;;;;;;;;;;;5.90;99.90;;;;;;5077937;28;20014;-53
2023/02/12 06:29:38;;;;;;;;;;;5.80;99.90;;;;;;5077608;28;20007;-54
2023/02/12 06:32:07;;;;;;;;;;;5.70;99.90;;;;;;5078255;28;20284;-55
2023/02/12 06:34:34;;;;;;;;;;;5.70;99.90;;;;;;5078564;28;19927;-55
2023/02/12 06:37:01;;;;;;;;;;;5.60;99.90;;;;;;5077698;28;20367;-55
2023/02/12 06:39:29;;;;;;;;;;;5.60;99.90;;;;;;5078165;28;19979;-55
2023/02/12 06:41:56;;;;;;;;;;;5.70;99.90;;;;;;5078792;28;19970;-55
2023/02/12 06:44:23;;;;;;;;;;;5.70;99.90;;;;;;5078247;28;19920;-56
2023/02/12 06:46:50;;;;;;;;;;;5.70;99.90;;;;;;5077969;28;19920;-53
2023/02/12 06:49:17;;;;;;;;;;;5.70;99.90;;;;;;5077962;28;20393;-56
2023/02/12 06:51:44;;;;;;;;;;;5.70;99.90;;;;;;5075442;28;20046;-56
2023/02/12 06:54:15;;;;;;;;;;;5.70;99.90;;;;;;5077504;28;20019;-56
2023/02/12 06:56:43;;;;;;;;;;;5.70;99.90;;;;;;5077779;28;20051;-56
2023/02/12 06:59:13;;;;;;;;;;;5.70;99.90;;;;;;5076995;28;20005;-54
2023/02/12 07:01:39;;;;;;;;;;;5.70;99.90;;;;;;5078585;28;20225;-55
2023/02/12 07:04:06;;;;;;;;;;;5.80;99.90;;;;;;5078260;28;20011;-55
2023/02/12 07:06:34;;;;;;;;;;;5.80;99.90;;;;;;5077009;28;20231;-55
2023/02/12 07:09:01;;;;;;;;;;;5.90;99.90;;;;;;5078511;28;20379;-53
2023/02/12 07:11:29;;;;;;;;;;;6.00;99.90;;;;;;5077545;28;19956;-55
2023/02/12 07:13:57;;;;;;;;;;;6.10;99.90;;;;;;5077995;28;20312;-54
2023/02/12 07:16:25;;;;;;;;;;;6.20;99.90;;;;;;5077066;28;19921;-56
2023/02/12 07:18:52;;;;;;;;;;;6.20;99.90;;;;;;5077435;28;20015;-56
2023/02/12 07:21:19;;;;;;;;;;;6.10;99.90;;;;;;5076552;28;19921;-54
2023/02/12 07:23:47;;;;;;;;;;;6.10;99.90;;;;;;5076398;28;20201;-55
2023/02/12 07:26:14;;;;;;;;;;;6.00;99.90;;;;;;5076476;28;19920;-55
2023/02/12 07:28:41;;;;;;;;;;;6.10;99.90;;;;;;5077404;28;20011;-55
2023/02/12 07:31:11;;;;;;;;;;;6.10;99.90;;;;;;5077378;28;20010;-54
2023/02/12 07:33:38;;;;;;;;;;;6.10;99.90;;;;;;5077474;28;20039;-53
2023/02/12 07:36:06;;;;;;;;;;;6.00;99.90;;;;;;5077665;28;19920;-55
2023/02/12 07:38:35;;;;;;;;;;;6.10;99.90;;;;;;5077561;28;20011;-55
2023/02/12 07:41:08;;;;;;;;;;;6.10;99.90;;;;;;5075450;28;19920;-54
2023/02/12 07:43:35;;;;;;;;;;;6.20;99.90;;;;;;5077294;28;20015;-54
2023/02/12 07:46:06;;;;;;;;;;;6.20;99.90;;;;;;5076173;28;20265;-56
2023/02/12 07:48:34;;;;;;;;;;;6.30;99.90;;;;;;5076795;28;19956;-55
2023/02/12 07:51:03;;;;;;;;;;;6.30;99.90;;;;;;5077017;28;20007;-56
2023/02/12 07:53:30;;;;;;;;;;;6.30;99.90;;;;;;5076131;28;20051;-55
2023/02/12 07:56:04;;;;;;;;;;;6.30;99.90;;;;;;5076037;28;20015;-54
2023/02/12 07:58:31;;;;;;;;;;;6.30;99.90;;;;;;5072146;28;19947;-53
2023/02/12 08:00:58;;;;;;;;;;;6.30;99.90;;;;;;5075877;28;19927;-54
2023/02/12 08:03:25;;;;;;;;;;;6.40;99.90;;;;;;5076116;28;19920;-54
2023/02/12 08:05:53;;;;;;;;;;;6.40;99.90;;;;;;5076387;28;19920;-52
2023/02/12 08:08:20;;;;;;;;;;;6.40;99.90;;;;;;5074430;28;19956;-54
2023/02/12 08:10:47;;;;;;;;;;;6.40;99.90;;;;;;5073451;28;20467;-50
2023/02/12 08:13:14;;;;;;;;;;;6.40;99.90;;;;;;5073615;28;19963;-52
2023/02/12 08:15:41;;;;;;;;;;;6.40;99.90;;;;;;5074146;28;20403;-55
2023/02/12 08:18:07;;;;;;;;;;;6.40;99.90;;;;;;5074104;28;19959;-54
2023/02/12 08:20:34;;;;;;;;;;;6.40;99.90;;;;;;5074300;28;20011;-55
2023/02/12 08:23:03;;;;;;;;;;;6.40;99.90;;;;;;5074797;28;20292;-55
2023/02/12 08:25:30;;;;;;;;;;;6.40;99.90;;;;;;5073166;28;20247;-51
2023/02/12 08:27:56;;;;;;;;;;;6.50;99.90;;;;;;5074653;28;19963;-54
2023/02/12 08:30:23;;;;;;;;;;;6.70;99.90;;;;;;5075045;28;20354;-55
2023/02/12 08:32:50;;;;;;;;;;;6.70;99.90;;;;;;5074929;28;19960;-53
2023/02/12 08:35:17;;;;;;;;;;;6.80;99.90;;;;;;5076452;28;19960;-55
2023/02/12 08:37:44;;;;;;;;;;;6.90;99.90;;;;;;5076771;28;19927;-55
2023/02/12 08:40:13;;;;;;;;;;;6.90;99.90;;;;;;5076551;28;19924;-51
2023/02/12 08:42:40;;;;;;;;;;;6.90;99.90;;;;;;5076407;28;19924;-56
2023/02/12 08:45:07;;;;;;;;;;;6.90;99.90;;;;;;5076133;28;20306;-57
2023/02/12 08:47:34;;;;;;;;;;;7.00;99.90;;;;;;5076279;28;20046;-56
2023/02/12 08:50:01;;;;;;;;;;;7.00;99.90;;;;;;5073760;28;19920;-58
2023/02/12 08:52:28;;;;;;;;;;;7.00;99.90;;;;;;5074679;28;20015;-55
2023/02/12 08:54:55;;;;;;;;;;;7.10;99.90;;;;;;5075984;28;19920;-57
2023/02/12 08:57:23;;;;;;;;;;;7.00;99.90;;;;;;5075785;28;19920;-54
2023/02/12 08:59:50;;;;;;;;;;;7.00;99.90;;;;;;5074847;28;20015;-54
2023/02/12 09:02:17;;;;;;;;;;;7.00;99.90;;;;;;5072616;28;19975;-55
2023/02/12 09:04:44;;;;;;;;;;;7.00;99.90;;;;;;5075264;28;20010;-52
2023/02/12 09:07:11;;;;;;;;;;;7.10;99.90;;;;;;5073098;28;20239;-54
2023/02/12 09:09:38;;;;;;;;;;;7.20;99.90;;;;;;5075365;28;20011;-55
2023/02/12 09:12:05;;;;;;;;;;;7.20;99.90;;;;;;5075319;28;19956;-55
2023/02/12 09:14:33;;;;;;;;;;;7.30;99.90;;;;;;5077230;28;19968;-56
2023/02/12 09:17:00;;;;;;;;;;;7.40;99.90;;;;;;5079323;28;20034;-56
2023/02/12 09:19:27;;;;;;;;;;;7.40;99.90;;;;;;5077827;28;20315;-56
2023/02/12 09:21:55;;;;;;;;;;;7.50;99.90;;;;;;5061490;28;20372;-56
2023/02/12 09:24:22;;;;;;;;;;;7.60;99.90;;;;;;5079010;28;19921;-57
2023/02/12 09:26:49;;;;;;;;;;;7.60;99.90;;;;;;5078629;28;20428;-56
2023/02/12 09:29:16;;;;;;;;;;;7.60;99.90;;;;;;5076624;28;20022;-55
2023/02/12 09:31:44;;;;;;;;;;;7.70;99.90;;;;;;5076011;28;19926;-56
2023/02/12 09:34:11;;;;;;;;;;;7.70;99.90;;;;;;5077361;28;19998;-54
2023/02/12 09:36:38;;;;;;;;;;;7.80;99.90;;;;;;5078032;28;20002;-55
2023/02/12 09:39:05;;;;;;;;;;;7.70;99.90;;;;;;5078861;28;19959;-56
2023/02/12 09:41:59;;;;;;;;;;;7.70;99.90;;;;;;5078595;28;19924;-53
2023/02/12 09:44:28;;;;;;;;;;;7.80;99.90;;;;;;5077839;28;19960;-56
2023/02/12 09:46:59;;;;;;;;;;;7.70;99.90;;;;;;5079095;28;19955;-58
2023/02/12 09:49:42;;;;;;;;;;;7.80;99.90;;;;;;5078710;28;19944;-56
2023/02/12 09:52:12;;;;;;;;;;;8.00;99.90;;;;;;5077731;28;19921;-55
2023/02/12 09:54:40;;;;;;;;;;;8.10;99.90;;;;;;5077535;28;20044;-56
2023/02/12 09:57:12;;;;;;;;;;;8.30;99.90;;;;;;5077127;28;19924;-54
2023/02/12 09:59:41;;;;;;;;;;;8.30;99.90;;;;;;5077886;28;19952;-58
2023/02/12 10:02:14;;;;;;;;;;;8.10;99.90;;;;;;5077603;28;19927;-57
2023/02/12 10:04:42;;;;;;;;;;;8.10;99.90;;;;;;5078296;28;19920;-54
2023/02/12 10:07:17;;;;;;;;;;;8.10;99.90;;;;;;5077602;28;19927;-56
2023/02/12 10:09:53;;;;;;;;;;;8.30;99.90;;;;;;5078620;28;19952;-55
2023/02/12 10:12:26;;;;;;;;;;;8.40;99.90;;;;;;5077488;28;20023;-56
2023/02/12 10:15:00;;;;;;;;;;;8.50;99.90;;;;;;5076819;28;20322;-54
2023/02/12 10:17:33;;;;;;;;;;;8.60;99.90;;;;;;5077311;28;20024;-54
2023/02/12 10:20:06;;;;;;;;;;;8.50;99.90;;;;;;5078674;28;20019;-56
2023/02/12 10:22:38;;;;;;;;;;;8.40;99.90;;;;;;5078653;28;19926;-55
2023/02/12 10:25:13;;;;;;;;;;;8.50;99.90;;;;;;5077499;28;20216;-55
2023/02/12 10:27:41;;;;;;;;;;;8.60;99.90;;;;;;5076294;28;20223;-56
2023/02/12 10:30:19;;;;;;;;;;;8.70;99.90;;;;;;5075269;28;20422;-55
2023/02/12 10:32:50;;;;;;;;;;;8.80;99.90;;;;;;5076825;28;20007;-52
2023/02/12 10:35:19;;;;;;;;;;;8.90;99.90;;;;;;5077769;28;20346;-56
2023/02/12 10:37:48;;;;;;;;;;;8.90;99.90;;;;;;5077225;28;19927;-57
2023/02/12 10:40:17;;;;;;;;;;;8.80;99.90;;;;;;5077406;28;19927;-53
2023/02/12 10:42:45;;;;;;;;;;;8.80;99.90;;;;;;5077792;28;19955;-55
2023/02/12 10:45:13;;;;;;;;;;;8.80;99.90;;;;;;5077934;28;19964;-54
2023/02/12 10:47:41;;;;;;;;;;;8.90;99.90;;;;;;5078199;28;19927;-55
2023/02/12 10:50:16;;;;;;;;;;;8.80;99.90;;;;;;5077587;28;19951;-55
2023/02/12 10:52:46;;;;;;;;;;;8.80;99.90;;;;;;5076008;28;19921;-56
2023/02/12 10:55:24;;;;;;;;;;;8.90;99.90;;;;;;5075941;28;20011;-56
2023/02/12 10:57:51;;;;;;;;;;;8.90;99.90;;;;;;5076035;28;19920;-55
2023/02/12 11:00:24;;;;;;;;;;;9.00;99.90;;;;;;5076045;28;19921;-54
2023/02/12 11:03:00;;;;;;;;;;;8.90;99.90;;;;;;5076159;28;19960;-55
2023/02/12 11:05:29;;;;;;;;;;;8.90;99.90;;;;;;5075217;28;19967;-55
2023/02/12 11:07:57;;;;;;;;;;;9.00;99.90;;;;;;5073668;28;19991;-56
2023/02/12 11:10:27;;;;;;;;;;;8.90;99.90;;;;;;5071636;28;19927;-55
2023/02/12 11:12:54;;;;;;;;;;;8.90;99.90;;;;;;5074098;28;19920;-55
2023/02/12 11:15:22;;;;;;;;;;;9.00;99.90;;;;;;5075933;28;19961;-55
2023/02/12 11:17:55;;;;;;;;;;;9.10;99.90;;;;;;5075253;28;20287;-54
2023/02/12 11:20:24;;;;;;;;;;;9.20;99.90;;;;;;5075066;28;20243;-52
2023/02/12 11:22:54;;;;;;;;;;;9.20;99.90;;;;;;5077129;28;20379;-56
2023/02/12 11:25:21;;;;;;;;;;;9.20;99.90;;;;;;5076265;28;19920;-53
2023/02/12 11:27:59;;;;;;;;;;;9.30;99.90;;;;;;5077566;28;20287;-52
2023/02/12 11:30:26;;;;;;;;;;;9.30;99.90;;;;;;5076385;28;19951;-55
2023/02/12 11:32:53;;;;;;;;;;;9.20;99.90;;;;;;5076777;28;19963;-55
2023/02/12 11:35:24;;;;;;;;;;;9.20;99.90;;;;;;5075672;28;20015;-56
2023/02/12 11:37:54;;;;;;;;;;;9.20;99.90;;;;;;5075233;28;19920;-55
2023/02/12 11:40:22;;;;;;;;;;;9.20;99.90;;;;;;5076078;28;20284;-56
2023/02/12 11:42:50;;;;;;;;;;;9.40;99.90;;;;;;5075690;28;19934;-54
2023/02/12 11:45:18;;;;;;;;;;;9.50;99.90;;;;;;5077137;28;19974;-52
2023/02/12 11:47:46;;;;;;;;;;;9.60;99.90;;;;;;5076520;28;19935;-56
2023/02/12 11:50:18;;;;;;;;;;;9.70;99.90;;;;;;5076416;28;19920;-56
2023/02/12 11:52:48;;;;;;;;;;;9.80;99.90;;;;;;5076039;28;20304;-56
2023/02/12 11:55:21;;;;;;;;;;;9.80;99.90;;;;;;5076420;28;20387;-54
2023/02/12 11:57:50;;;;;;;;;;;9.70;99.90;;;;;;5074971;28;20398;-56
2023/02/12 12:00:19;;;;;;;;;;;9.80;99.90;;;;;;5056720;28;19963;-55
2023/02/12 12:02:49;;;;;;;;;;;9.80;99.90;;;;;;5070444;28;20010;-54
2023/02/12 12:05:18;;;;;;;;;;;9.90;99.90;;;;;;5074928;28;20337;-55
2023/02/12 12:07:50;;;;;;;;;;;9.70;99.90;;;;;;5073882;28;19921;-53
2023/02/12 12:10:20;;;;;;;;;;;9.70;99.90;;;;;;5074261;28;20340;-55
2023/02/12 12:12:51;;;;;;;;;;;9.70;99.90;;;;;;5076610;28;20375;-56
2023/02/12 12:20:55;;;;;;;;;;;9.50;99.90;;;;;;5075419;28;19943;-56
2023/02/12 12:23:25;;;;;;;;;;;9.60;99.90;;;;;;5074037;28;19927;-57
2023/02/12 12:25:54;;;;;;;;;;;9.80;99.90;;;;;;5075068;28;19920;-57
2023/02/12 12:28:31;;;;;;;;;;;9.90;99.90;;;;;;5075755;28;20039;-57
2023/02/12 12:31:04;;;;;;;;;;;10.00;99.90;;;;;;5073735;28;20008;-57
2023/02/12 12:33:33;;;;;;;;;;;10.10;99.90;;;;;;5073529;28;20011;-60
2023/02/12 12:36:07;;;;;;;;;;;10.20;99.90;;;;;;5074449;28;20027;-56
2023/02/12 12:38:41;;;;;;;;;;;10.10;99.90;;;;;;5075691;28;20232;-57
2023/02/12 12:41:13;;;;;;;;;;;10.20;99.90;;;;;;5075900;28;20269;-57
2023/02/12 12:43:46;;;;;;;;;;;10.00;99.90;;;;;;5075012;28;19920;-55
2023/02/12 12:46:28;;;;;;;;;;;9.90;99.90;;;;;;5074794;28;20014;-56
2023/02/12 12:49:04;;;;;;;;;;;10.00;99.90;;;;;;5073254;28;19920;-56
2023/02/12 12:51:37;;;;;;;;;;;10.10;99.90;;;;;;5073824;28;20327;-57
2023/02/12 12:54:10;;;;;;;;;;;10.20;99.90;;;;;;5074126;28;19921;-56
2023/02/12 12:56:55;;;;;;;;;;;10.10;99.90;;;;;;5075350;28;20284;-57
2023/02/12 12:59:31;;;;;;;;;;;10.10;99.90;;;;;;5074054;28;20147;-56
2023/02/12 13:02:03;;;;;;;;;;;9.90;99.90;;;;;;5073302;28;19920;-57
2023/02/12 13:04:45;;;;;;;;;;;9.90;99.90;;;;;;5074089;28;19999;-58
2023/02/12 13:07:19;;;;;;;;;;;9.80;99.90;;;;;;5073164;28;20007;-56
2023/02/12 13:09:49;;;;;;;;;;;9.80;99.90;;;;;;5073476;28;20232;-55
2023/02/12 13:12:28;;;;;;;;;;;9.80;99.90;;;;;;5072793;28;20008;-57
2023/02/12 13:15:00;;;;;;;;;;;9.80;99.90;;;;;;5073438;28;19920;-55
2023/02/12 13:17:31;;;;;;;;;;;9.80;99.90;;;;;;5074489;28;19947;-57
2023/02/12 13:20:01;;;;;;;;;;;9.80;99.90;;;;;;5073975;28;19920;-56
2023/02/12 13:22:32;;;;;;;;;;;9.70;99.90;;;;;;5075414;28;20306;-61
2023/02/12 13:25:02;;;;;;;;;;;9.70;99.90;;;;;;5074932;28;20332;-58
2023/02/12 13:27:31;;;;;;;;;;;9.70;99.90;;;;;;5074300;28;19920;-57
2023/02/12 13:30:01;;;;;;;;;;;9.60;99.90;;;;;;5073500;28;20016;-58
2023/02/12 13:32:29;;;;;;;;;;;9.50;99.90;;;;;;5073286;28;20344;-57
2023/02/12 13:34:57;;;;;;;;;;;9.50;99.90;;;;;;5073228;28;19920;-58
2023/02/12 13:37:31;;;;;;;;;;;9.60;99.90;;;;;;5071142;28;20454;-58
2023/02/12 13:39:59;;;;;;;;;;;9.70;99.90;;;;;;5073592;28;19978;-58
2023/02/12 13:42:41;;;;;;;;;;;9.80;99.90;;;;;;5072376;28;19929;-58
2023/02/12 13:45:17;;;;;;;;;;;9.80;99.90;;;;;;5067903;28;19921;-57
2023/02/12 13:47:48;;;;;;;;;;;9.80;99.90;;;;;;5067240;28;20002;-57
2023/02/12 13:50:25;;;;;;;;;;;9.60;99.90;;;;;;5073117;28;19920;-58
2023/02/12 13:52:54;;;;;;;;;;;9.60;99.90;;;;;;5057012;28;20107;-58
2023/02/12 13:55:23;;;;;;;;;;;9.50;99.90;;;;;;5062515;28;20043;-57
2023/02/12 13:58:04;;;;;;;;;;;9.50;99.90;;;;;;5070094;28;19921;-58
2023/02/12 14:00:50;;;;;;;;;;;9.50;99.90;;;;;;5064194;28;19920;-58
2023/02/12 14:03:23;;;;;;;;;;;9.70;99.90;;;;;;5072706;28;19971;-58
2023/02/12 14:06:06;;;;;;;;;;;9.80;99.90;;;;;;5058917;28;20324;-57
2023/02/12 14:08:35;;;;;;;;;;;9.80;99.90;;;;;;5065115;28;20363;-53
2023/02/12 14:11:04;;;;;;;;;;;9.60;99.90;;;;;;5078349;28;19920;-57
2023/02/12 14:13:33;;;;;;;;;;;9.60;99.90;;;;;;5078428;28;19920;-57
2023/02/12 14:16:18;;;;;;;;;;;9.60;99.90;;;;;;5078353;28;20015;-55
2023/02/12 14:18:47;;;;;;;;;;;9.70;99.90;;;;;;5078781;28;20011;-59
2023/02/12 14:21:43;;;;;;;;;;;9.80;99.90;;;;;;5078001;28;20011;-59
2023/02/12 14:24:29;;;;;;;;;;;9.80;99.90;;;;;;5072906;28;19920;-57
2023/02/12 14:26:56;;;;;;;;;;;9.80;99.90;;;;;;5078311;28;19920;-58
2023/02/12 14:29:23;;;;;;;;;;;9.80;99.90;;;;;;5077716;28;20477;-59
2023/02/12 14:31:50;;;;;;;;;;;9.80;99.90;;;;;;5077125;28;19925;-58
2023/02/12 14:34:50;;;;;;;;;;;9.80;99.90;;;;;;5076475;28;19982;-58
2023/02/12 14:37:33;;;;;;;;;;;9.80;99.90;;;;;;5077368;28;20410;-56
2023/02/12 14:40:18;;;;;;;;;;;9.80;99.90;;;;;;5076508;28;19931;-55
2023/02/12 14:42:54;;;;;;;;;;;9.80;99.90;;;;;;5076775;28;20024;-58
2023/02/12 14:45:28;;;;;;;;;;;9.70;99.90;;;;;;5077845;28;19924;-58
2023/02/12 14:47:55;;;;;;;;;;;9.70;99.90;;;;;;5077358;28;19920;-58
2023/02/12 14:50:24;;;;;;;;;;;9.60;99.90;;;;;;5076459;28;19974;-57
2023/02/12 14:52:55;;;;;;;;;;;9.60;99.90;;;;;;5075120;28;20015;-58